Terminal Aerodrome Forecast
Issued by NWS Louisville, KY

Home | Current Version | Previous Version | Text Only | Print | Product List | Glossary On
Versions: 1 2 3 4 5 6 7 8 9 10 11 12 13 14
781
FTUS43 KLMK 212320
TAFSDF
TAF
KSDF 212320Z 2200/2306 01008KT P6SM FEW050 SCT250
     FM220300 34004KT P6SM SKC
     FM221800 31011G19KT P6SM SCT060=

USA.gov is the U.S. government's official web portal to all federal, state and local government web resources and services.